Time;durP1;ratioP1;P1;durP2;ratioP2;P2;SDS_P1;SDS_P2;PMS_P1;PMS_P2;Temp;Humidity;BMP_temperature;BMP_pressure;BME280_temperature;BME280_humidity;BME280_pressure;Samples;Min_cycle;Max_cycle;Signal;HPM_P1;HPM_P2
2021/10/27 00:01:44;;;;;;;6.90;4.25;;;13.10;96.70;;;;;;5096057;28;20094;-62
2021/10/27 00:04:10;;;;;;;7.82;3.78;;;13.10;96.70;;;;;;5097674;28;20103;-62
2021/10/27 00:06:36;;;;;;;8.07;4.00;;;13.10;96.70;;;;;;5096526;28;20055;-62
2021/10/27 00:09:03;;;;;;;4.50;3.60;;;13.10;96.70;;;;;;5097714;28;20124;-62
2021/10/27 00:11:29;;;;;;;5.72;3.40;;;13.10;96.70;;;;;;5096153;28;20024;-62
2021/10/27 00:13:55;;;;;;;6.78;3.50;;;13.10;96.70;;;;;;5092789;28;20115;-62
2021/10/27 00:16:20;;;;;;;7.45;4.03;;;13.10;96.70;;;;;;5093326;28;20111;-63
2021/10/27 00:18:46;;;;;;;7.00;3.88;;;13.10;96.70;;;;;;5094414;28;20379;-63
2021/10/27 00:21:11;;;;;;;11.88;5.25;;;13.10;96.70;;;;;;5093177;28;20016;-63
2021/10/27 00:23:37;;;;;;;7.85;4.05;;;13.20;96.70;;;;;;5094646;28;20031;-63
2021/10/27 00:26:02;;;;;;;5.80;3.70;;;13.20;96.70;;;;;;5091325;28;20081;-62
2021/10/27 00:28:28;;;;;;;9.32;4.07;;;13.20;96.70;;;;;;5092047;28;20028;-62
2021/10/27 00:30:53;;;;;;;9.77;4.30;;;13.20;96.70;;;;;;5092836;28;20024;-63
2021/10/27 00:33:19;;;;;;;6.20;3.72;;;13.20;96.70;;;;;;5094009;28;20028;-63
2021/10/27 00:35:45;;;;;;;5.97;4.03;;;13.20;96.60;;;;;;5093148;28;20028;-63
2021/10/27 00:38:10;;;;;;;6.70;3.95;;;13.20;96.70;;;;;;5093128;28;20128;-63
2021/10/27 00:40:36;;;;;;;6.72;5.00;;;13.20;96.70;;;;;;5094306;28;20036;-63
2021/10/27 00:43:01;;;;;;;9.07;3.85;;;13.20;96.70;;;;;;5074184;28;20025;-63
2021/10/27 00:45:27;;;;;;;6.82;4.00;;;13.20;96.70;;;;;;5073736;28;20032;-63
2021/10/27 00:47:52;;;;;;;9.68;3.75;;;13.20;96.70;;;;;;5072442;28;20025;-64
2021/10/27 00:50:18;;;;;;;6.32;3.80;;;13.20;96.70;;;;;;5073679;28;20021;-63
2021/10/27 00:52:44;;;;;;;7.53;3.78;;;13.20;96.70;;;;;;5073525;28;20025;-62
2021/10/27 00:55:09;;;;;;;5.47;4.07;;;13.20;96.70;;;;;;5072292;28;20033;-63
2021/10/27 00:57:37;;;;;;;5.70;3.50;;;13.20;96.70;;;;;;5073150;28;20112;-63
2021/10/27 01:00:06;;;;;;;5.13;3.90;;;13.10;96.70;;;;;;5073187;28;20055;-63
2021/10/27 01:02:31;;;;;;;6.97;3.72;;;13.10;96.70;;;;;;5075576;28;20064;-63
2021/10/27 01:04:57;;;;;;;5.90;3.67;;;13.10;96.70;;;;;;5071897;28;20144;-63
2021/10/27 01:07:23;;;;;;;7.57;4.03;;;13.10;96.70;;;;;;5071806;28;20029;-63
2021/10/27 01:09:52;;;;;;;8.23;3.88;;;13.10;96.70;;;;;;5073687;28;20407;-63
2021/10/27 01:12:17;;;;;;;5.28;3.70;;;13.10;96.70;;;;;;5085014;28;20020;-63
2021/10/27 01:14:45;;;;;;;6.93;3.88;;;13.10;96.80;;;;;;5093658;28;20073;-63
2021/10/27 01:17:13;;;;;;;7.13;4.25;;;13.10;96.80;;;;;;5083645;28;20043;-63
2021/10/27 01:19:46;;;;;;;5.97;3.78;;;13.10;96.80;;;;;;5072932;28;20045;-63
2021/10/27 01:22:13;;;;;;;6.25;4.03;;;13.10;96.80;;;;;;5073008;28;20131;-63
2021/10/27 01:24:38;;;;;;;6.90;3.60;;;13.10;96.80;;;;;;5072141;28;20467;-63
2021/10/27 01:27:04;;;;;;;7.05;4.18;;;13.10;96.80;;;;;;5077561;28;20112;-63
2021/10/27 01:29:30;;;;;;;4.93;3.63;;;13.10;96.80;;;;;;5089723;28;20058;-63
2021/10/27 01:31:55;;;;;;;6.22;4.13;;;13.10;96.80;;;;;;5093320;28;20012;-63
2021/10/27 01:34:21;;;;;;;7.15;4.47;;;13.10;96.80;;;;;;5075169;28;20881;-63
2021/10/27 01:36:46;;;;;;;8.85;3.88;;;13.10;96.80;;;;;;5080588;28;20032;-63
2021/10/27 01:39:12;;;;;;;4.97;3.60;;;13.10;96.70;;;;;;5076535;28;20075;-63
2021/10/27 01:41:37;;;;;;;6.78;4.07;;;13.10;96.70;;;;;;5072702;28;20047;-63
2021/10/27 01:44:03;;;;;;;5.72;4.10;;;13.10;96.70;;;;;;5086236;28;20088;-64
2021/10/27 01:46:34;;;;;;;10.68;4.15;;;13.10;96.70;;;;;;5092780;28;20070;-63
2021/10/27 01:49:01;;;;;;;6.97;4.30;;;13.10;96.70;;;;;;5078253;28;20029;-63
2021/10/27 01:51:27;;;;;;;6.68;4.18;;;13.10;96.70;;;;;;5087741;28;20024;-63
2021/10/27 01:53:54;;;;;;;7.03;3.92;;;13.10;96.70;;;;;;5078791;28;20143;-63
2021/10/27 01:56:20;;;;;;;6.90;4.45;;;13.10;96.70;;;;;;5072568;28;20071;-63
2021/10/27 01:58:46;;;;;;;7.03;4.18;;;13.10;96.80;;;;;;5083366;28;20476;-63
2021/10/27 02:01:12;;;;;;;8.07;4.00;;;13.10;96.80;;;;;;5089322;28;20043;-63
2021/10/27 02:03:37;;;;;;;6.18;4.40;;;13.10;96.80;;;;;;5073351;28;20016;-63
2021/10/27 02:06:03;;;;;;;6.95;4.68;;;13.10;96.80;;;;;;5072365;28;20024;-63
2021/10/27 02:08:28;;;;;;;7.30;4.53;;;13.10;96.80;;;;;;5080122;28;20024;-63
2021/10/27 02:10:54;;;;;;;10.45;6.40;;;13.10;96.70;;;;;;5092408;28;20027;-63
2021/10/27 02:13:19;;;;;;;6.35;4.07;;;13.10;96.70;;;;;;5083433;28;20099;-62
2021/10/27 02:15:45;;;;;;;6.75;4.40;;;13.10;96.70;;;;;;5071908;28;20028;-63
2021/10/27 02:18:11;;;;;;;6.35;4.30;;;13.20;96.70;;;;;;5078248;28;20035;-63
2021/10/27 02:20:36;;;;;;;6.93;4.97;;;13.10;96.70;;;;;;5090785;28;20043;-63
2021/10/27 02:23:03;;;;;;;6.70;4.28;;;13.10;96.70;;;;;;5073654;28;20607;-63
2021/10/27 02:25:28;;;;;;;8.85;4.90;;;13.20;96.70;;;;;;5070697;28;20121;-64
2021/10/27 02:27:54;;;;;;;5.90;4.57;;;13.10;96.70;;;;;;5075231;28;20051;-63
2021/10/27 02:30:19;;;;;;;6.32;4.63;;;13.10;96.70;;;;;;5092149;28;20466;-63
2021/10/27 02:32:45;;;;;;;8.60;5.03;;;13.20;96.70;;;;;;5090169;28;20028;-63
2021/10/27 02:35:10;;;;;;;7.13;4.50;;;13.20;96.70;;;;;;5091737;28;20035;-63
2021/10/27 02:37:36;;;;;;;7.70;4.63;;;13.20;96.60;;;;;;5090492;28;20032;-63
2021/10/27 02:40:02;;;;;;;6.57;4.50;;;13.20;96.60;;;;;;5072736;28;20480;-63
2021/10/27 02:42:27;;;;;;;9.63;4.53;;;13.20;96.60;;;;;;5072248;28;20021;-63
2021/10/27 02:44:53;;;;;;;8.23;4.38;;;13.20;96.60;;;;;;5070583;28;20020;-63
2021/10/27 02:47:19;;;;;;;7.65;5.07;;;13.20;96.60;;;;;;5069761;28;20423;-63
2021/10/27 02:49:44;;;;;;;7.30;4.35;;;13.30;96.60;;;;;;5091286;28;20020;-63
2021/10/27 02:52:10;;;;;;;8.00;4.32;;;13.30;96.60;;;;;;5073408;28;20131;-64
2021/10/27 02:54:35;;;;;;;8.93;4.35;;;13.20;96.60;;;;;;5071678;28;20047;-63
2021/10/27 02:57:01;;;;;;;8.45;4.22;;;13.20;96.60;;;;;;5071597;28;20073;-63
2021/10/27 02:59:26;;;;;;;8.02;4.50;;;13.30;96.60;;;;;;5087670;28;20032;-63
2021/10/27 03:01:52;;;;;;;9.25;4.80;;;13.30;96.60;;;;;;5090274;28;20126;-63
2021/10/27 03:04:17;;;;;;;6.72;4.20;;;13.30;96.50;;;;;;5089883;28;20025;-63
2021/10/27 03:06:43;;;;;;;6.45;4.35;;;13.30;96.50;;;;;;5092067;28;20028;-63
2021/10/27 03:09:08;;;;;;;8.52;4.65;;;13.30;96.50;;;;;;5089685;28;20118;-63
2021/10/27 03:11:34;;;;;;;6.75;4.57;;;13.30;96.50;;;;;;5091861;28;20073;-63
2021/10/27 03:13:59;;;;;;;7.50;4.65;;;13.30;96.50;;;;;;5089810;28;20034;-63
2021/10/27 03:16:25;;;;;;;6.88;5.13;;;13.30;96.50;;;;;;5091548;28;20094;-63
2021/10/27 03:18:50;;;;;;;8.10;5.30;;;13.40;96.50;;;;;;5082234;28;20071;-62
2021/10/27 03:21:16;;;;;;;8.48;4.50;;;13.30;96.50;;;;;;5071434;28;20032;-63
2021/10/27 03:23:41;;;;;;;8.75;4.80;;;13.40;96.50;;;;;;5071851;28;20023;-62
2021/10/27 03:26:07;;;;;;;6.80;5.00;;;13.30;96.40;;;;;;5074841;28;20028;-62
2021/10/27 03:28:32;;;;;;;7.60;3.92;;;13.40;96.40;;;;;;5080912;28;20025;-62
2021/10/27 03:30:58;;;;;;;7.85;4.78;;;13.30;96.40;;;;;;5071129;28;20043;-62
2021/10/27 03:33:23;;;;;;;8.35;4.40;;;13.30;96.50;;;;;;5078795;28;20016;-63
2021/10/27 03:35:50;;;;;;;7.32;4.80;;;13.40;96.50;;;;;;5091546;28;20161;-63
2021/10/27 03:38:16;;;;;;;12.02;5.07;;;13.30;96.40;;;;;;5089443;28;20051;-63
2021/10/27 03:40:45;;;;;;;9.80;4.80;;;13.40;96.50;;;;;;5091516;28;20073;-63
2021/10/27 03:43:10;;;;;;;7.88;4.70;;;13.40;96.50;;;;;;5076497;28;20028;-63
2021/10/27 03:45:36;;;;;;;7.22;4.75;;;13.40;96.70;;;;;;5086378;28;20035;-63
2021/10/27 03:48:02;;;;;;;5.97;4.65;;;13.40;96.40;;;;;;5073155;28;20094;-63
2021/10/27 03:50:28;;;;;;;7.85;4.97;;;13.40;96.50;;;;;;5084617;28;20028;-63
2021/10/27 03:52:53;;;;;;;5.88;4.47;;;13.40;96.50;;;;;;5076358;28;20118;-63
2021/10/27 03:55:19;;;;;;;9.30;4.90;;;13.40;96.50;;;;;;5074217;28;20033;-63
2021/10/27 03:57:44;;;;;;;7.93;4.82;;;13.30;96.50;;;;;;5076883;28;20507;-63
2021/10/27 04:00:11;;;;;;;7.82;4.78;;;13.40;96.50;;;;;;5092740;28;20078;-63
2021/10/27 04:02:39;;;;;;;9.35;4.70;;;13.30;96.40;;;;;;5085493;28;20021;-63
2021/10/27 04:05:05;;;;;;;7.07;4.55;;;13.30;96.50;;;;;;5072990;28;20037;-62
2021/10/27 04:07:31;;;;;;;6.95;4.78;;;13.30;96.50;;;;;;5074975;28;20036;-64
2021/10/27 04:09:57;;;;;;;7.50;5.13;;;13.30;96.50;;;;;;5094776;28;20094;-63
2021/10/27 04:12:22;;;;;;;8.60;5.00;;;13.30;96.50;;;;;;5093103;28;20388;-63
2021/10/27 04:14:48;;;;;;;7.93;5.18;;;13.30;96.50;;;;;;5094019;28;20036;-63
2021/10/27 04:17:14;;;;;;;12.45;5.45;;;13.30;96.50;;;;;;5093358;28;20024;-63
2021/10/27 04:19:40;;;;;;;12.95;5.13;;;13.30;96.50;;;;;;5074438;28;20510;-63
2021/10/27 04:22:05;;;;;;;8.20;5.25;;;13.30;96.50;;;;;;5074323;28;20032;-62
2021/10/27 04:24:31;;;;;;;10.00;5.60;;;13.30;96.50;;;;;;5088758;28;20381;-62
2021/10/27 04:26:56;;;;;;;9.40;5.72;;;13.30;96.50;;;;;;5081399;28;20473;-62
2021/10/27 04:29:22;;;;;;;8.27;5.13;;;13.20;96.50;;;;;;5089884;28;20028;-62
2021/10/27 04:31:48;;;;;;;8.38;5.60;;;13.20;96.50;;;;;;5094643;28;20114;-63
2021/10/27 04:34:13;;;;;;;9.32;5.22;;;13.20;96.50;;;;;;5077196;28;20078;-63
2021/10/27 04:36:39;;;;;;;7.38;4.97;;;13.30;96.50;;;;;;5073958;28;20025;-63
2021/10/27 04:39:05;;;;;;;10.05;5.45;;;13.20;96.50;;;;;;5087373;28;20067;-63
2021/10/27 04:41:31;;;;;;;8.13;5.63;;;13.20;96.50;;;;;;5094234;28;20037;-63
2021/10/27 04:43:56;;;;;;;10.57;5.30;;;13.30;96.50;;;;;;5086713;28;20024;-63
2021/10/27 04:46:23;;;;;;;9.93;5.38;;;13.20;96.50;;;;;;5073280;28;20078;-63
2021/10/27 04:48:48;;;;;;;9.80;6.00;;;13.30;96.50;;;;;;5084811;28;20394;-63
2021/10/27 04:51:14;;;;;;;9.00;5.82;;;13.30;96.50;;;;;;5074844;28;20069;-63
2021/10/27 04:53:39;;;;;;;8.75;6.00;;;13.30;96.40;;;;;;5083438;28;20051;-63
2021/10/27 04:56:05;;;;;;;12.63;5.95;;;13.30;96.40;;;;;;5093788;28;20589;-63
2021/10/27 04:58:30;;;;;;;8.13;5.28;;;13.30;96.40;;;;;;5091308;28;20073;-63
2021/10/27 05:00:56;;;;;;;8.77;5.70;;;13.30;96.40;;;;;;5093701;28;20071;-63
2021/10/27 05:03:22;;;;;;;7.18;5.30;;;13.30;96.60;;;;;;5074784;28;20056;-63
2021/10/27 05:05:49;;;;;;;8.65;5.85;;;13.30;96.40;;;;;;5073561;28;20028;-63
2021/10/27 05:08:17;;;;;;;7.40;4.80;;;13.30;96.30;;;;;;5073532;28;20027;-63
2021/10/27 05:10:43;;;;;;;9.25;5.22;;;13.30;96.30;;;;;;5073417;28;20056;-63
2021/10/27 05:13:08;;;;;;;9.98;5.03;;;13.30;96.30;;;;;;5078353;28;20062;-63
2021/10/27 05:15:34;;;;;;;10.70;5.47;;;13.30;96.30;;;;;;5093614;28;20012;-63
2021/10/27 05:17:59;;;;;;;7.07;4.35;;;13.40;96.30;;;;;;5087047;28;20052;-63
2021/10/27 05:20:25;;;;;;;11.75;5.53;;;13.30;96.30;;;;;;5072900;28;20029;-62
2021/10/27 05:22:50;;;;;;;11.73;5.13;;;13.30;96.30;;;;;;5073589;28;20020;-62
2021/10/27 05:25:16;;;;;;;9.57;4.82;;;13.30;96.20;;;;;;5072965;28;20103;-63
2021/10/27 05:27:41;;;;;;;7.43;5.10;;;13.30;96.30;;;;;;5086068;28;20043;-63
2021/10/27 05:30:07;;;;;;;9.65;5.63;;;13.30;96.30;;;;;;5072975;28;20020;-63
2021/10/27 05:32:33;;;;;;;11.57;5.60;;;13.30;96.30;;;;;;5074114;28;20033;-63
2021/10/27 05:34:59;;;;;;;11.00;5.18;;;13.30;96.30;;;;;;5093185;28;20020;-63
2021/10/27 05:37:24;;;;;;;10.00;5.05;;;13.30;96.30;;;;;;5079642;28;20032;-63
2021/10/27 05:39:50;;;;;;;8.80;5.00;;;13.30;96.40;;;;;;5074283;28;20534;-63
2021/10/27 05:42:21;;;;;;;7.78;4.55;;;13.30;96.20;;;;;;5086293;28;20028;-63
2021/10/27 05:44:49;;;;;;;11.25;5.03;;;13.30;96.20;;;;;;5076557;28;20061;-64
2021/10/27 05:47:15;;;;;;;6.75;5.00;;;13.40;96.20;;;;;;5088306;28;20056;-64
2021/10/27 05:55:20;;;;;;;6.78;4.32;;;13.40;96.20;;;;;;5071320;28;20478;-64
2021/10/27 05:57:46;;;;;;;7.85;4.82;;;13.40;96.20;;;;;;5077724;28;20062;-64
2021/10/27 06:00:11;;;;;;;5.90;4.28;;;13.40;96.10;;;;;;5080024;28;20462;-63
2021/10/27 06:02:37;;;;;;;7.65;5.22;;;13.40;96.20;;;;;;5079755;28;20028;-64
2021/10/27 06:05:04;;;;;;;8.15;4.80;;;13.40;96.10;;;;;;5075153;28;20024;-64
2021/10/27 06:07:33;;;;;;;8.98;4.35;;;13.40;96.10;;;;;;5071870;28;20381;-64
2021/10/27 06:09:59;;;;;;;8.85;5.13;;;13.50;96.10;;;;;;5072099;28;20039;-64
2021/10/27 06:12:24;;;;;;;9.48;4.57;;;13.50;96.10;;;;;;5070695;28;20465;-64
2021/10/27 06:14:50;;;;;;;8.48;4.72;;;13.50;96.10;;;;;;5077094;28;20032;-63
2021/10/27 06:17:16;;;;;;;7.55;4.60;;;13.50;96.00;;;;;;5070591;28;20020;-64
2021/10/27 06:19:41;;;;;;;8.45;4.30;;;13.50;96.10;;;;;;5077295;28;20472;-64
2021/10/27 06:22:09;;;;;;;9.60;4.63;;;13.50;96.00;;;;;;5076759;28;20054;-64
2021/10/27 06:24:36;;;;;;;7.05;3.90;;;13.60;96.10;;;;;;5087220;28;20099;-64
2021/10/27 06:27:03;;;;;;;6.45;4.10;;;13.60;96.00;;;;;;5072081;28;20036;-64
2021/10/27 06:29:38;;;;;;;6.57;3.90;;;13.60;96.00;;;;;;5085406;28;20403;-64
2021/10/27 06:32:16;;;;;;;7.93;3.80;;;13.60;96.00;;;;;;5071133;28;20046;-64
2021/10/27 06:34:53;;;;;;;6.35;3.72;;;13.60;96.00;;;;;;5079408;28;20058;-65
2021/10/27 06:37:34;;;;;;;7.10;4.05;;;13.60;95.90;;;;;;5070487;28;20029;-65
2021/10/27 06:48:13;;;;;;;7.10;3.88;;;13.70;95.80;;;;;;5070605;28;20047;-63
2021/10/27 06:50:39;;;;;;;6.72;3.97;;;13.70;95.80;;;;;;5071334;28;20480;-64
2021/10/27 06:53:04;;;;;;;6.60;4.20;;;13.70;95.80;;;;;;5073312;28;20040;-64
2021/10/27 06:55:33;;;;;;;6.18;3.90;;;13.70;95.80;;;;;;5070829;28;20039;-64
2021/10/27 06:57:59;;;;;;;6.18;3.90;;;13.70;95.70;;;;;;5073654;28;20082;-64
2021/10/27 07:01:08;;;;;;;9.30;3.72;;;13.70;95.70;;;;;;5071531;28;20040;-63
2021/10/27 07:03:33;;;;;;;6.18;3.42;;;13.80;95.70;;;;;;5075993;28;20028;-64
2021/10/27 07:06:25;;;;;;;5.43;3.88;;;13.80;95.70;;;;;;5072924;28;20488;-64
2021/10/27 07:17:03;;;;;;;6.90;3.85;;;13.90;95.60;;;;;;5071720;28;20463;-65
2021/10/27 07:19:29;;;;;;;7.45;3.90;;;13.90;95.60;;;;;;5079679;28;20020;-65
2021/10/27 07:21:54;;;;;;;6.38;3.80;;;13.90;95.60;;;;;;5078464;28;20025;-65
2021/10/27 07:24:20;;;;;;;9.80;4.80;;;13.90;95.60;;;;;;5078703;28;20174;-65
2021/10/27 07:26:46;;;;;;;8.35;5.00;;;13.90;95.60;;;;;;5081476;28;20449;-65
2021/10/27 07:29:17;;;;;;;10.00;4.18;;;13.90;95.60;;;;;;5082198;28;20035;-64
2021/10/27 07:31:43;;;;;;;7.72;3.88;;;13.90;95.60;;;;;;5074666;28;20032;-65
2021/10/27 07:34:12;;;;;;;7.47;4.75;;;13.90;95.50;;;;;;5076323;28;20174;-64
2021/10/27 07:39:53;;;;;;;7.25;4.47;;;14.00;95.50;;;;;;5085848;28;20054;-64
2021/10/27 07:42:14;;;;;;;7.53;4.05;;;14.10;95.50;;;;;;5092741;28;20388;-64
2021/10/27 07:44:40;;;;;;;6.15;3.63;;;14.10;95.50;;;;;;5074456;28;20048;-64
2021/10/27 07:47:05;;;;;;;8.02;3.67;;;14.10;95.50;;;;;;5073723;28;20551;-64
2021/10/27 07:49:31;;;;;;;5.97;3.85;;;14.10;95.40;;;;;;5092897;28;20048;-64
2021/10/27 07:51:56;;;;;;;6.10;3.80;;;14.10;95.40;;;;;;5080268;28;20417;-64
2021/10/27 07:54:22;;;;;;;6.22;3.80;;;14.20;95.40;;;;;;5085082;28;20048;-64
2021/10/27 07:56:49;;;;;;;6.28;3.72;;;14.30;95.40;;;;;;5093486;28;20091;-64
2021/10/27 07:59:15;;;;;;;9.00;4.07;;;14.30;95.40;;;;;;5094379;28;20053;-64
2021/10/27 08:01:44;;;;;;;8.70;3.65;;;14.30;95.40;;;;;;5093499;28;20043;-64
2021/10/27 08:04:09;;;;;;;9.23;3.45;;;14.30;95.30;;;;;;5094652;28;20023;-64
2021/10/27 08:06:36;;;;;;;9.55;4.18;;;14.30;95.20;;;;;;5093602;28;20012;-64
2021/10/27 08:09:02;;;;;;;5.72;3.67;;;14.30;95.20;;;;;;5079438;28;20030;-63
2021/10/27 08:11:28;;;;;;;7.85;4.18;;;14.40;95.20;;;;;;5084612;28;20050;-64
2021/10/27 08:13:54;;;;;;;7.30;3.75;;;14.40;95.20;;;;;;5093413;28;20028;-65
2021/10/27 08:16:20;;;;;;;9.32;4.28;;;14.40;95.10;;;;;;5086609;28;20086;-64
2021/10/27 08:18:45;;;;;;;7.47;4.00;;;14.40;95.10;;;;;;5081688;28;20026;-64
2021/10/27 08:21:11;;;;;;;5.07;3.50;;;14.40;95.10;;;;;;5075490;28;20032;-64
2021/10/27 08:23:40;;;;;;;7.50;4.53;;;14.40;95.10;;;;;;5090209;28;20049;-63
2021/10/27 08:26:09;;;;;;;8.32;5.10;;;14.40;95.10;;;;;;5078130;28;20060;-64
2021/10/27 08:28:43;;;;;;;5.75;3.63;;;14.40;95.10;;;;;;5086616;28;20086;-64
2021/10/27 08:31:14;;;;;;;6.93;4.25;;;14.40;95.10;;;;;;5077708;28;20036;-64
2021/10/27 08:36:06;;;;;;;11.70;5.13;;;14.50;95.10;;;;;;5087935;28;20020;-64
2021/10/27 08:38:32;;;;;;;5.25;3.92;;;14.50;95.10;;;;;;5076421;28;20028;-64
2021/10/27 08:40:59;;;;;;;7.95;4.55;;;14.50;95.10;;;;;;5073978;28;20040;-64
2021/10/27 08:43:25;;;;;;;10.02;4.57;;;14.60;95.10;;;;;;5074229;28;20365;-63
2021/10/27 08:45:51;;;;;;;10.77;4.28;;;14.60;95.10;;;;;;5073951;28;20031;-64
2021/10/27 08:48:17;;;;;;;10.77;6.03;;;14.70;95.10;;;;;;5086863;28;20032;-64
2021/10/27 08:50:44;;;;;;;12.48;5.65;;;14.70;95.00;;;;;;5092219;28;20055;-64
2021/10/27 08:53:14;;;;;;;9.18;4.75;;;14.70;95.00;;;;;;5087161;28;20040;-64
2021/10/27 08:55:41;;;;;;;9.82;5.47;;;14.70;95.00;;;;;;5087178;28;20064;-64
2021/10/27 08:58:07;;;;;;;8.82;4.00;;;14.70;95.10;;;;;;5092878;28;20151;-64
2021/10/27 09:00:47;;;;;;;8.73;4.63;;;14.80;95.10;;;;;;5085031;28;20565;-64
2021/10/27 09:06:24;;;;;;;8.18;4.43;;;14.90;95.10;;;;;;5073484;28;20028;-63
2021/10/27 09:09:25;;;;;;;7.80;4.43;;;15.00;95.10;;;;;;5077411;28;20039;-63
2021/10/27 09:15:09;;;;;;;6.53;4.00;;;15.20;95.10;;;;;;5093324;28;20066;-63
2021/10/27 09:35:01;;;;;;;7.60;3.22;;;15.70;94.70;;;;;;5090236;28;20102;-64
2021/10/27 09:37:44;;;;;;;8.07;4.40;;;15.70;94.60;;;;;;5072652;28;20028;-64
2021/10/27 09:40:40;;;;;;;9.07;3.75;;;15.70;94.60;;;;;;5076762;28;20097;-64
2021/10/27 09:43:15;;;;;;;10.60;4.55;;;15.80;94.60;;;;;;5084934;28;20020;-63
2021/10/27 09:55:38;;;;;;;6.53;3.57;;;15.90;94.50;;;;;;5072579;28;20111;-64
2021/10/27 10:05:14;;;;;;;;;;;16.40;94.30;;;;;;5075385;28;20047;-63
2021/10/27 10:07:41;;;;;;;4.70;2.40;;;16.40;94.50;;;;;;5091665;28;19908;-64
2021/10/27 10:10:08;;;;;;;6.20;2.67;;;16.40;94.30;;;;;;5077675;28;20119;-64
2021/10/27 10:12:45;;;;;;;6.80;3.10;;;16.50;94.20;;;;;;5087061;28;20020;-65
2021/10/27 10:15:11;;;;;;;6.10;3.17;;;16.50;94.20;;;;;;5078333;28;20032;-64
2021/10/27 10:17:45;;;;;;;4.50;2.75;;;16.50;94.10;;;;;;5074070;28;20043;-64
2021/10/27 10:20:12;;;;;;;8.30;2.97;;;16.60;94.10;;;;;;5079087;28;20571;-63
2021/10/27 10:22:42;;;;;;;9.25;3.40;;;16.60;94.00;;;;;;5071076;28;20062;-63
2021/10/27 10:25:20;;;;;;;8.00;3.45;;;16.70;93.90;;;;;;5073892;28;20028;-63
2021/10/27 10:27:47;;;;;;;7.97;3.22;;;16.70;93.80;;;;;;5083884;28;20094;-63
2021/10/27 10:30:36;;;;;;;7.13;3.20;;;16.80;93.70;;;;;;5080674;28;20385;-63
2021/10/27 10:33:09;;;;;;;6.78;2.97;;;16.80;93.70;;;;;;5075264;28;20028;-63
2021/10/27 10:35:49;;;;;;;4.68;2.95;;;16.80;93.50;;;;;;5081246;28;20047;-64
2021/10/27 10:39:01;;;;;;;5.68;3.78;;;16.90;93.40;;;;;;5076365;28;20031;-64
2021/10/27 11:25:09;;;;;;;7.13;4.15;;;17.00;93.30;;;;;;5070745;28;20040;-64
2021/10/27 11:27:25;;;;;;;8.13;3.50;;;17.00;93.20;;;;;;5080583;28;20067;-64
2021/10/27 11:38:17;;;;;;;6.07;3.45;;;17.00;93.30;;;;;;5070220;28;20457;-64
2021/10/27 11:40:45;;;;;;;11.40;4.85;;;17.00;93.30;;;;;;5079273;28;20079;-64
2021/10/27 11:45:53;;;;;;;9.32;3.90;;;17.00;93.10;;;;;;5073329;28;20028;-64
2021/10/27 11:48:32;;;;;;;8.77;4.63;;;17.00;93.10;;;;;;5074635;28;20028;-64
2021/10/27 11:51:07;;;;;;;6.93;3.88;;;17.00;93.20;;;;;;5070387;28;20383;-64
2021/10/27 11:53:33;;;;;;;9.60;3.97;;;17.00;93.20;;;;;;5078586;28;20044;-64
2021/10/27 11:56:10;;;;;;;6.70;3.58;;;17.00;93.20;;;;;;5075038;28;20088;-64
2021/10/27 11:58:38;;;;;;;6.30;3.58;;;17.00;93.30;;;;;;5070808;28;20370;-64
2021/10/27 12:01:06;;;;;;;9.23;4.68;;;17.00;93.30;;;;;;5079350;28;20094;-64
2021/10/27 12:03:39;;;;;;;9.93;4.25;;;17.00;93.30;;;;;;5078859;28;20024;-64
2021/10/27 12:06:16;;;;;;;7.87;3.87;;;17.00;93.30;;;;;;5071449;28;20063;-64
2021/10/27 12:19:07;;;;;;;7.25;3.70;;;17.00;93.20;;;;;;5082715;28;20127;-63
2021/10/27 12:21:35;;;;;;;6.72;3.33;;;17.00;93.20;;;;;;5073612;28;20028;-64
2021/10/27 12:24:02;;;;;;;7.85;3.78;;;17.00;93.10;;;;;;5077906;28;20032;-64
2021/10/27 12:26:40;;;;;;;7.90;3.65;;;16.90;93.40;;;;;;5085894;28;20429;-63
2021/10/27 12:29:14;;;;;;;5.78;3.35;;;17.00;93.30;;;;;;5084521;28;20107;-64
2021/10/27 12:31:41;;;;;;;8.00;3.83;;;16.90;93.20;;;;;;5073483;28;20032;-63
2021/10/27 12:34:25;;;;;;;9.50;5.00;;;16.90;93.30;;;;;;5075897;28;20032;-63
2021/10/27 12:36:53;;;;;;;11.63;5.20;;;16.90;93.30;;;;;;5073140;28;20028;-64
2021/10/27 12:39:34;;;;;;;9.48;5.03;;;16.90;93.30;;;;;;5076102;28;20289;-63
2021/10/27 12:42:13;;;;;;;9.63;5.68;;;17.00;93.30;;;;;;5075782;28;20040;-63
2021/10/27 12:44:53;;;;;;;8.13;3.67;;;17.00;93.40;;;;;;5077564;28;20033;-63
2021/10/27 12:47:27;;;;;;;4.85;3.03;;;17.00;93.30;;;;;;5072401;28;20039;-64
2021/10/27 12:50:06;;;;;;;;;;;16.90;93.30;;;;;;5074366;28;20051;-63
2021/10/27 12:52:34;;;;;;;7.40;3.00;;;16.90;93.30;;;;;;5087346;28;19915;-63
2021/10/27 12:55:16;;;;;;;5.43;3.20;;;16.90;93.40;;;;;;5088701;28;20440;-63
2021/10/27 12:57:43;;;;;;;5.85;3.40;;;16.90;93.40;;;;;;5079450;28;20111;-63
2021/10/27 13:00:14;;;;;;;7.97;4.35;;;16.90;93.40;;;;;;5072525;28;20459;-63
2021/10/27 13:02:44;;;;;;;8.80;4.07;;;16.90;93.50;;;;;;5082539;28;20028;-64
2021/10/27 13:05:26;;;;;;;7.13;3.65;;;16.90;93.40;;;;;;5072043;28;20507;-63
2021/10/27 13:07:58;;;;;;;7.10;3.35;;;16.80;93.40;;;;;;5083749;28;20055;-63
2021/10/27 13:10:37;;;;;;;6.93;3.30;;;16.80;93.40;;;;;;5079729;28;20035;-63
2021/10/27 13:13:30;;;;;;;12.55;5.95;;;16.80;93.40;;;;;;5073402;28;20392;-63
2021/10/27 13:16:39;;;;;;;7.07;4.03;;;16.80;93.50;;;;;;5074300;28;20060;-64
2021/10/27 13:21:49;;;;;;;6.00;3.38;;;16.80;93.50;;;;;;5081650;28;20042;-63
2021/10/27 13:29:44;;;;;;;9.30;3.83;;;16.80;93.50;;;;;;5077767;28;20466;-63
2021/10/27 13:32:17;;;;;;;5.40;3.15;;;16.80;93.60;;;;;;5071365;28;20036;-63
2021/10/27 13:34:43;;;;;;;8.10;3.30;;;16.80;93.50;;;;;;5079638;28;20770;-63
2021/10/27 13:37:09;;;;;;;6.30;3.28;;;16.80;93.50;;;;;;5083491;28;20027;-63
2021/10/27 13:39:35;;;;;;;5.72;3.30;;;16.70;93.50;;;;;;5076122;28;20034;-63
2021/10/27 13:42:06;;;;;;;4.90;3.10;;;16.70;93.50;;;;;;5073585;28;20028;-63
2021/10/27 13:44:38;;;;;;;6.35;3.80;;;16.70;93.60;;;;;;5071525;28;20439;-63
2021/10/27 13:47:21;;;;;;;10.10;4.18;;;16.70;93.60;;;;;;5080865;28;20511;-63
2021/10/27 13:49:56;;;;;;;8.50;4.07;;;16.70;93.70;;;;;;5071090;28;20060;-63
2021/10/27 14:08:51;;;;;;;6.55;3.47;;;16.60;93.90;;;;;;5072835;28;20020;-64
2021/10/27 14:11:37;;;;;;;7.07;3.65;;;16.60;93.90;;;;;;5071090;28;20028;-63
2021/10/27 14:14:15;;;;;;;7.80;4.03;;;16.60;93.90;;;;;;5073729;28;20041;-63
2021/10/27 14:19:54;;;;;;;4.85;3.38;;;16.60;93.90;;;;;;5077909;28;20024;-63
2021/10/27 15:21:58;;;;;;;9.57;4.90;;;16.30;94.70;;;;;;5073259;28;20081;-63
2021/10/27 15:24:38;;;;;;;8.82;4.30;;;16.30;94.70;;;;;;5075348;28;20028;-63
2021/10/27 15:30:04;;;;;;;8.83;4.53;;;16.20;94.70;;;;;;5075648;28;20074;-63
2021/10/27 15:33:03;;;;;;;9.77;4.38;;;16.30;94.70;;;;;;5079283;28;20041;-63
2021/10/27 15:41:15;;;;;;;8.50;4.50;;;16.20;94.90;;;;;;5090399;28;20039;-63
2021/10/27 15:51:50;;;;;;;7.80;5.32;;;16.20;95.00;;;;;;5074947;28;20516;-63
2021/10/27 15:54:16;;;;;;;13.88;5.43;;;16.20;95.10;;;;;;5074481;28;20049;-64
2021/10/27 15:56:43;;;;;;;6.68;4.38;;;16.10;95.10;;;;;;5093573;28;20021;-64
2021/10/27 15:59:09;;;;;;;8.30;5.55;;;16.20;95.10;;;;;;5093604;28;20046;-64
2021/10/27 16:01:34;;;;;;;9.23;5.25;;;16.20;95.20;;;;;;5082076;28;20035;-64
2021/10/27 16:04:00;;;;;;;5.85;4.40;;;16.10;95.20;;;;;;5087915;28;20032;-64
2021/10/27 16:06:27;;;;;;;18.02;6.53;;;16.20;95.20;;;;;;5074758;28;20044;-65
2021/10/27 16:08:56;;;;;;;7.28;4.68;;;16.10;95.30;;;;;;5082783;28;20371;-64
2021/10/27 16:11:22;;;;;;;9.43;4.80;;;16.20;95.30;;;;;;5093206;28;20077;-64
2021/10/27 16:13:48;;;;;;;8.30;5.03;;;16.10;95.30;;;;;;5089650;28;20502;-63
2021/10/27 16:16:14;;;;;;;10.68;5.47;;;16.10;95.40;;;;;;5081818;28;20120;-63
2021/10/27 16:18:40;;;;;;;8.73;5.25;;;16.10;95.40;;;;;;5074430;28;20488;-63
2021/10/27 16:21:06;;;;;;;8.02;4.75;;;16.00;95.40;;;;;;5080447;28;20032;-63
2021/10/27 16:23:32;;;;;;;9.93;5.93;;;16.10;95.50;;;;;;5074065;28;20051;-63
2021/10/27 16:25:58;;;;;;;8.23;5.15;;;16.10;95.50;;;;;;5080328;28;20029;-63
2021/10/27 16:28:25;;;;;;;9.77;5.32;;;16.10;95.50;;;;;;5074411;28;20063;-64
2021/10/27 16:30:52;;;;;;;9.30;5.25;;;16.00;95.50;;;;;;5085566;28;20089;-63
2021/10/27 16:33:21;;;;;;;11.27;5.00;;;16.00;95.60;;;;;;5091744;28;20484;-63
2021/10/27 16:35:50;;;;;;;8.00;5.32;;;16.00;95.60;;;;;;5094291;28;20081;-64
2021/10/27 16:38:16;;;;;;;7.88;4.93;;;16.10;95.60;;;;;;5090196;28;20095;-64
2021/10/27 16:40:42;;;;;;;9.73;6.45;;;16.00;95.60;;;;;;5093797;28;20131;-64
2021/10/27 16:43:07;;;;;;;15.23;6.20;;;16.10;95.60;;;;;;5085505;28;20657;-64
2021/10/27 16:45:34;;;;;;;8.43;5.63;;;16.10;95.60;;;;;;5090795;28;20024;-64
2021/10/27 16:48:00;;;;;;;9.43;6.43;;;16.00;95.60;;;;;;5087276;28;20025;-64
2021/10/27 16:50:26;;;;;;;8.98;5.88;;;16.00;95.60;;;;;;5073774;28;20040;-64